createdAt,value
2018-06-13T00:01:55.717Z,20.60
2018-06-13T00:04:25.893Z,20.57
2018-06-13T00:06:55.886Z,20.50
2018-06-13T00:09:25.890Z,20.46
2018-06-13T00:11:56.332Z,20.36
2018-06-13T00:14:26.391Z,20.29
2018-06-13T00:16:56.603Z,20.21
2018-06-13T00:19:26.652Z,20.26
2018-06-13T00:21:56.560Z,20.16
2018-06-13T00:24:27.143Z,20.12
2018-06-13T00:26:57.336Z,20.41
2018-06-13T00:29:27.354Z,20.24
2018-06-13T00:31:57.258Z,20.22
2018-06-13T00:34:27.593Z,20.16
2018-06-13T00:36:57.990Z,20.10
2018-06-13T00:39:28.212Z,20.06
2018-06-13T00:41:58.380Z,20.03
2018-06-13T00:44:28.808Z,19.98
2018-06-13T00:46:59.121Z,20.00
2018-06-13T00:49:29.385Z,20.03
2018-06-13T00:51:59.743Z,20.02
2018-06-13T00:54:29.895Z,19.98
2018-06-13T00:57:00.488Z,19.93
2018-06-13T00:59:30.344Z,19.93
2018-06-13T01:02:00.858Z,19.95
2018-06-13T01:04:31.223Z,19.95
2018-06-13T01:07:01.833Z,20.02
2018-06-13T01:09:31.975Z,19.98
2018-06-13T01:12:02.324Z,19.98
2018-06-13T01:14:32.255Z,19.89
2018-06-13T01:17:02.287Z,19.89
2018-06-13T01:19:32.352Z,19.82
2018-06-13T01:22:02.482Z,19.79
2018-06-13T01:24:32.367Z,19.81
2018-06-13T01:27:02.483Z,19.87
2018-06-13T01:29:32.351Z,19.81
2018-06-13T01:32:02.310Z,19.76
2018-06-13T01:34:32.316Z,19.71
2018-06-13T01:37:02.597Z,19.86
2018-06-13T01:39:32.648Z,19.78
2018-06-13T01:42:02.705Z,19.66
2018-06-13T01:44:32.672Z,19.68
2018-06-13T01:47:02.633Z,19.56
2018-06-13T01:49:33.251Z,19.45
2018-06-13T01:52:06.996Z,19.58
2018-06-13T01:54:37.583Z,19.57
2018-06-13T01:57:07.771Z,19.41
2018-06-13T01:59:37.901Z,19.31
2018-06-13T02:02:07.867Z,19.34
2018-06-13T02:04:37.897Z,19.39
2018-06-13T02:07:07.790Z,19.36
2018-06-13T02:09:38.117Z,19.34
2018-06-13T02:12:08.117Z,19.30
2018-06-13T02:14:38.097Z,19.32
2018-06-13T02:17:08.182Z,19.29
2018-06-13T02:19:38.111Z,19.27
2018-06-13T02:22:08.281Z,19.15
2018-06-13T02:24:38.297Z,19.12
2018-06-13T02:27:08.732Z,19.10
2018-06-13T02:29:38.700Z,19.09
2018-06-13T02:32:08.661Z,19.11
2018-06-13T02:34:38.837Z,19.17
2018-06-13T02:37:08.802Z,19.23
2018-06-13T02:39:38.912Z,19.14
2018-06-13T02:42:08.884Z,19.13
2018-06-13T02:44:38.872Z,19.11
2018-06-13T02:47:09.438Z,19.11
2018-06-13T02:49:40.034Z,19.02
2018-06-13T02:52:10.108Z,18.93
2018-06-13T02:54:40.226Z,18.92
2018-06-13T02:57:10.377Z,18.97
2018-06-13T02:59:40.622Z,18.84
2018-06-13T03:02:10.857Z,18.83
2018-06-13T03:04:40.836Z,18.92
2018-06-13T03:07:10.884Z,18.88
2018-06-13T03:09:40.920Z,18.89
2018-06-13T03:12:12.074Z,18.96
2018-06-13T03:14:42.548Z,19.03
2018-06-13T03:17:12.976Z,19.13
2018-06-13T03:19:43.293Z,19.15
2018-06-13T03:22:13.698Z,19.19
2018-06-13T03:24:44.289Z,19.31
2018-06-13T03:27:15.058Z,19.59
2018-06-13T03:29:45.380Z,19.73
2018-06-13T03:32:15.673Z,19.83
2018-06-13T03:34:45.831Z,19.90
2018-06-13T03:37:16.049Z,20.07
2018-06-13T03:39:46.129Z,20.23
2018-06-13T03:42:16.355Z,20.17
2018-06-13T03:44:46.940Z,20.32
2018-06-13T03:47:17.247Z,20.48
2018-06-13T03:49:47.293Z,20.80
2018-06-13T03:52:17.211Z,20.79
2018-06-13T03:54:47.216Z,20.68
2018-06-13T03:57:17.348Z,20.86
2018-06-13T03:59:47.645Z,20.98
2018-06-13T04:02:18.204Z,20.81
2018-06-13T04:04:48.312Z,20.94
2018-06-13T04:07:18.494Z,20.84
2018-06-13T04:09:48.514Z,20.76
2018-06-13T04:12:18.437Z,20.85
2018-06-13T04:14:48.465Z,21.22
2018-06-13T04:17:18.325Z,20.96
2018-06-13T04:19:48.295Z,20.92
2018-06-13T04:22:18.495Z,20.92
2018-06-13T04:24:48.486Z,21.20
2018-06-13T04:27:18.439Z,20.76
2018-06-13T04:29:48.563Z,20.63
2018-06-13T04:32:18.792Z,20.61
2018-06-13T04:34:49.057Z,20.53
2018-06-13T04:37:19.368Z,20.53
2018-06-13T04:39:49.224Z,20.52
2018-06-13T04:42:19.558Z,20.61
2018-06-13T04:44:49.384Z,20.65
2018-06-13T04:47:19.622Z,20.80
2018-06-13T04:49:49.872Z,21.08
2018-06-13T04:52:20.277Z,21.03
2018-06-13T04:54:50.611Z,20.96
2018-06-13T04:57:20.858Z,21.12
2018-06-13T04:59:51.547Z,20.95
2018-06-13T05:02:22.048Z,21.06
2018-06-13T05:04:52.357Z,21.04
2018-06-13T05:07:23.093Z,21.13
2018-06-13T05:09:53.649Z,21.07
2018-06-13T05:12:23.700Z,21.07
2018-06-13T05:14:54.168Z,21.09
2018-06-13T05:17:24.355Z,21.12
2018-06-13T05:19:55.076Z,21.08
2018-06-13T05:22:25.436Z,21.13
2018-06-13T05:24:55.800Z,21.23
2018-06-13T05:27:26.080Z,21.38
2018-06-13T05:29:56.109Z,21.37
2018-06-13T05:32:26.124Z,21.74
2018-06-13T05:34:57.134Z,21.95
2018-06-13T05:37:29.073Z,22.18
2018-06-13T05:39:59.235Z,22.44
2018-06-13T05:42:29.901Z,22.12
2018-06-13T05:45:00.155Z,22.11
2018-06-13T05:47:30.486Z,22.15
2018-06-13T05:50:00.392Z,22.18
2018-06-13T05:52:30.745Z,22.25
2018-06-13T05:55:01.164Z,22.38
2018-06-13T05:57:31.753Z,22.50
2018-06-13T06:00:02.041Z,22.57
2018-06-13T06:02:33.630Z,22.89
2018-06-13T06:05:03.596Z,22.96
2018-06-13T06:07:33.525Z,22.99
2018-06-13T06:10:03.386Z,23.50
2018-06-13T06:12:33.537Z,23.61
2018-06-13T06:15:04.016Z,23.70
2018-06-13T06:17:34.524Z,23.51
2018-06-13T06:20:05.631Z,23.90
2018-06-13T06:22:35.852Z,24.30
2018-06-13T06:25:06.308Z,24.44
2018-06-13T06:27:36.269Z,24.46
2018-06-13T06:30:06.256Z,24.67
2018-06-13T06:32:36.222Z,24.55
2018-06-13T06:35:06.324Z,25.25
2018-06-13T06:37:36.613Z,25.25
2018-06-13T06:40:06.896Z,25.07
2018-06-13T06:42:36.897Z,24.81
2018-06-13T06:45:06.778Z,24.36
2018-06-13T06:47:36.989Z,24.45
2018-06-13T06:50:06.936Z,24.46
2018-06-13T06:52:37.029Z,24.69
2018-06-13T06:55:07.121Z,25.17
2018-06-13T06:57:37.407Z,25.77
2018-06-13T07:00:08.055Z,26.53
2018-06-13T07:02:38.495Z,26.08
2018-06-13T07:05:08.817Z,26.02
2018-06-13T07:07:39.099Z,25.67
2018-06-13T07:10:09.597Z,26.53
2018-06-13T07:12:39.481Z,26.90
2018-06-13T07:15:10.221Z,26.32
2018-06-13T07:17:40.915Z,25.62
2018-06-13T07:20:11.621Z,26.14
2018-06-13T07:22:41.912Z,26.90
2018-06-13T07:25:11.888Z,26.44
2018-06-13T07:27:42.556Z,26.56
2018-06-13T07:30:12.428Z,26.55
2018-06-13T07:32:43.503Z,27.23
2018-06-13T07:35:13.341Z,27.36
2018-06-13T07:37:43.921Z,26.72
2018-06-13T07:40:14.140Z,26.47
2018-06-13T07:42:44.200Z,27.03
2018-06-13T07:45:14.174Z,26.80
2018-06-13T07:47:44.257Z,27.35
2018-06-13T07:50:14.185Z,28.13
2018-06-13T07:52:44.473Z,28.47
2018-06-13T07:55:14.480Z,28.79
2018-06-13T07:57:44.576Z,29.01
2018-06-13T08:00:14.528Z,28.06
2018-06-13T08:02:45.274Z,27.69
2018-06-13T08:05:15.216Z,28.09
2018-06-13T08:07:45.964Z,28.43
2018-06-13T08:10:16.117Z,28.44
2018-06-13T08:12:46.599Z,28.56
2018-06-13T08:15:16.816Z,28.77
2018-06-13T08:17:46.808Z,29.10
2018-06-13T08:20:16.836Z,29.37
2018-06-13T08:22:47.035Z,29.50
2018-06-13T08:25:16.939Z,29.70
2018-06-13T08:27:50.235Z,30.30
2018-06-13T08:30:20.687Z,30.32
2018-06-13T08:32:50.999Z,29.98
2018-06-13T08:35:21.178Z,30.65
2018-06-13T08:37:52.877Z,30.15
2018-06-13T08:40:22.981Z,29.91
2018-06-13T08:42:54.062Z,30.18
2018-06-13T08:45:24.225Z,30.13
2018-06-13T08:47:54.584Z,29.79
2018-06-13T08:50:24.909Z,29.91
2018-06-13T08:52:56.727Z,29.80
2018-06-13T08:55:27.227Z,29.26
2018-06-13T08:57:57.359Z,29.48
2018-06-13T09:00:27.355Z,30.28
2018-06-13T09:02:57.945Z,30.48
2018-06-13T09:05:28.892Z,29.90
2018-06-13T09:08:04.208Z,29.31
2018-06-13T09:10:36.047Z,29.40
2018-06-13T09:13:10.957Z,29.19
2018-06-13T09:15:46.385Z,29.21
2018-06-13T09:18:22.633Z,28.86
2018-06-13T09:20:58.313Z,28.92
2018-06-13T09:23:34.689Z,28.56
2018-06-13T09:26:10.553Z,28.20
2018-06-13T09:28:46.102Z,28.60
2018-06-13T09:31:21.069Z,28.69
2018-06-13T09:33:56.581Z,28.39
2018-06-13T09:36:32.244Z,28.12
2018-06-13T09:39:02.638Z,27.87
2018-06-13T09:41:43.633Z,28.49
2018-06-13T09:44:14.577Z,28.84
2018-06-13T09:46:48.919Z,28.87
2018-06-13T09:49:17.962Z,28.38
2018-06-13T09:51:53.476Z,28.38
2018-06-13T09:54:23.785Z,28.21
2018-06-13T09:56:53.715Z,28.32
2018-06-13T09:59:34.075Z,28.13
2018-06-13T10:02:09.639Z,28.22
2018-06-13T10:04:40.170Z,28.09
2018-06-13T10:07:11.758Z,28.39
2018-06-13T10:09:42.622Z,28.25
2018-06-13T10:12:12.699Z,27.96
2018-06-13T10:14:42.673Z,28.32
2018-06-13T10:17:12.691Z,28.29
2018-06-13T10:19:43.013Z,28.53
2018-06-13T10:22:13.092Z,28.92
2018-06-13T10:24:43.215Z,28.78
2018-06-13T10:27:18.825Z,29.06
2018-06-13T10:29:49.178Z,29.23
2018-06-13T10:32:19.249Z,29.27
2018-06-13T10:34:49.253Z,29.32
2018-06-13T10:37:19.769Z,29.49
2018-06-13T10:39:50.867Z,29.73
2018-06-13T10:42:21.307Z,29.63
2018-06-13T10:44:51.469Z,29.75
2018-06-13T10:47:21.613Z,29.59
2018-06-13T10:49:51.720Z,29.59
2018-06-13T10:52:21.633Z,29.95
2018-06-13T10:54:53.604Z,29.50
2018-06-13T10:57:22.259Z,29.08
2018-06-13T10:59:52.290Z,29.03
2018-06-13T11:02:22.173Z,29.21
2018-06-13T11:04:52.347Z,28.67
2018-06-13T11:07:22.561Z,28.79
2018-06-13T11:09:53.152Z,28.98
2018-06-13T11:12:23.576Z,28.95
2018-06-13T11:14:54.456Z,28.89
2018-06-13T11:17:30.448Z,28.90
2018-06-13T11:20:01.190Z,29.46
2018-06-13T11:22:31.617Z,29.54
2018-06-13T11:25:02.018Z,29.51
2018-06-13T11:27:32.068Z,29.87
2018-06-13T11:30:02.024Z,30.06
2018-06-13T11:32:32.161Z,29.95
2018-06-13T11:35:06.149Z,30.06
2018-06-13T11:37:37.445Z,30.12
2018-06-13T11:40:07.614Z,30.10
2018-06-13T11:42:38.729Z,30.02
2018-06-13T11:45:08.770Z,29.91
2018-06-13T11:47:39.201Z,30.32
2018-06-13T11:50:09.442Z,30.16
2018-06-13T11:52:39.550Z,29.98
2018-06-13T11:55:09.720Z,30.16
2018-06-13T11:57:39.921Z,29.88
2018-06-13T12:00:10.248Z,30.30
2018-06-13T12:02:40.492Z,30.28
2018-06-13T12:05:11.036Z,30.32
2018-06-13T12:07:41.429Z,30.43
2018-06-13T12:10:11.494Z,30.01
2018-06-13T12:12:42.077Z,30.10
2018-06-13T12:15:12.316Z,30.22
2018-06-13T12:17:42.445Z,29.94
2018-06-13T12:20:12.970Z,29.63
2018-06-13T12:22:43.445Z,29.75
2018-06-13T12:25:13.765Z,30.36
2018-06-13T12:27:44.322Z,30.62
2018-06-13T12:30:14.676Z,30.29
2018-06-13T12:32:45.685Z,30.36
2018-06-13T12:35:16.168Z,29.86
2018-06-13T12:37:46.818Z,30.03
2018-06-13T12:40:16.848Z,30.17
2018-06-13T12:42:46.847Z,30.39
2018-06-13T12:45:16.747Z,30.91
2018-06-13T12:47:47.451Z,30.59
2018-06-13T12:50:18.023Z,30.87
2018-06-13T12:52:48.233Z,30.42
2018-06-13T12:55:18.699Z,30.47
2018-06-13T12:57:48.832Z,30.65
2018-06-13T13:00:19.363Z,31.16
2018-06-13T13:02:49.411Z,31.86
2018-06-13T13:05:19.729Z,31.79
2018-06-13T13:07:50.357Z,33.05
2018-06-13T13:10:20.633Z,33.94
2018-06-13T13:12:50.520Z,35.31
2018-06-13T13:15:20.401Z,35.84
2018-06-13T13:17:50.456Z,35.06
2018-06-13T13:20:20.406Z,35.48
2018-06-13T13:22:50.549Z,35.32
2018-06-13T13:25:20.798Z,35.92
2018-06-13T13:27:50.695Z,35.71
2018-06-13T13:30:20.901Z,35.98
2018-06-13T13:32:51.056Z,35.31
2018-06-13T13:35:21.122Z,34.62
2018-06-13T13:37:51.019Z,35.72
2018-06-13T13:40:20.944Z,35.51
2018-06-13T13:42:51.205Z,35.79
2018-06-13T13:45:21.155Z,36.94
2018-06-13T13:47:51.392Z,36.06
2018-06-13T13:50:21.961Z,35.98
2018-06-13T13:52:51.835Z,35.16
2018-06-13T13:55:22.354Z,35.96
2018-06-13T13:57:52.361Z,36.98
2018-06-13T14:00:22.533Z,36.89
2018-06-13T14:02:52.878Z,36.13
2018-06-13T14:05:22.981Z,36.63
2018-06-13T14:07:53.033Z,37.87
2018-06-13T14:10:23.199Z,37.57
2018-06-13T14:12:53.067Z,35.38
2018-06-13T14:15:23.127Z,37.14
2018-06-13T14:17:52.986Z,37.44
2018-06-13T14:20:23.504Z,37.64
2018-06-13T14:22:53.740Z,37.66
2018-06-13T14:25:23.706Z,37.86
2018-06-13T14:27:54.348Z,38.08
2018-06-13T14:30:24.689Z,38.52
2018-06-13T14:32:54.783Z,37.03
2018-06-13T14:35:25.277Z,38.11
2018-06-13T14:37:55.594Z,36.88
2018-06-13T14:40:26.005Z,37.86
2018-06-13T14:42:55.703Z,39.07
2018-06-13T14:45:25.920Z,37.63
2018-06-13T14:47:56.304Z,38.04
2018-06-13T14:50:26.536Z,38.10
2018-06-13T14:52:56.753Z,38.38
2018-06-13T14:55:27.028Z,38.70
2018-06-13T14:57:57.432Z,39.13
2018-06-13T15:00:27.775Z,38.28
2018-06-13T15:02:58.056Z,36.97
2018-06-13T15:05:28.071Z,38.44
2018-06-13T15:07:58.454Z,38.82
2018-06-13T15:10:28.381Z,38.37
2018-06-13T15:12:58.821Z,37.27
2018-06-13T15:15:28.952Z,39.04
2018-06-13T15:17:59.265Z,36.96
2018-06-13T15:20:29.639Z,37.98
2018-06-13T15:22:59.626Z,37.12
2018-06-13T15:25:30.137Z,37.14
2018-06-13T15:28:00.248Z,37.70
2018-06-13T15:30:30.188Z,38.23
2018-06-13T15:33:00.433Z,38.44
2018-06-13T15:35:30.289Z,38.32
2018-06-13T15:38:00.560Z,38.25
2018-06-13T15:40:30.624Z,37.77
2018-06-13T15:43:01.026Z,38.46
2018-06-13T15:45:30.940Z,38.04
2018-06-13T15:48:01.424Z,36.69
2018-06-13T15:50:31.925Z,36.85
2018-06-13T15:53:01.799Z,38.04
2018-06-13T15:55:31.899Z,38.17
2018-06-13T15:58:02.137Z,38.13
2018-06-13T16:00:32.056Z,39.16
2018-06-13T16:03:02.087Z,38.78
2018-06-13T16:05:32.193Z,37.90
2018-06-13T16:08:02.139Z,37.38
2018-06-13T16:10:32.233Z,38.45
2018-06-13T16:13:02.373Z,37.54
2018-06-13T16:15:32.355Z,38.66
2018-06-13T16:18:02.460Z,38.57
2018-06-13T16:20:32.311Z,38.09
2018-06-13T16:23:02.568Z,37.14
2018-06-13T16:25:32.713Z,37.12
2018-06-13T16:28:02.742Z,36.61
2018-06-13T16:30:32.919Z,36.19
2018-06-13T16:33:02.876Z,37.06
2018-06-13T16:35:32.899Z,36.26
2018-06-13T16:38:02.913Z,36.70
2018-06-13T16:40:32.894Z,36.13
2018-06-13T16:43:03.371Z,35.97
2018-06-13T16:45:33.268Z,34.64
2018-06-13T16:48:03.640Z,34.07
2018-06-13T16:50:47.844Z,34.59
2018-06-13T16:53:28.439Z,34.44
2018-06-13T16:55:58.208Z,33.11
2018-06-13T16:58:28.376Z,33.40
2018-06-13T17:00:58.438Z,33.49
2018-06-13T17:03:28.590Z,32.38
2018-06-13T17:05:58.516Z,31.48
2018-06-13T17:08:29.261Z,30.33
2018-06-13T17:10:59.483Z,29.57
2018-06-13T17:13:29.892Z,28.52
2018-06-13T17:16:00.018Z,27.77
2018-06-13T17:18:30.448Z,27.08
2018-06-13T17:21:00.508Z,26.74
2018-06-13T17:23:30.792Z,26.42
2018-06-13T17:26:00.841Z,26.26
2018-06-13T17:28:31.073Z,25.80
2018-06-13T17:31:01.093Z,25.95
2018-06-13T17:33:31.814Z,26.00
2018-06-13T17:36:02.368Z,25.71
2018-06-13T17:38:32.318Z,25.99
2018-06-13T17:41:02.367Z,25.93
2018-06-13T17:43:32.752Z,25.61
2018-06-13T17:46:02.845Z,25.81
2018-06-13T17:48:33.911Z,25.80
2018-06-13T17:51:04.059Z,25.52
2018-06-13T17:53:34.264Z,25.44
2018-06-13T17:56:04.293Z,25.48
2018-06-13T17:58:34.789Z,25.43
2018-06-13T18:01:04.814Z,25.55
2018-06-13T18:03:34.913Z,25.48
2018-06-13T18:06:05.048Z,25.44
2018-06-13T18:08:35.153Z,25.12
2018-06-13T18:11:05.094Z,24.86
2018-06-13T18:13:35.209Z,25.00
2018-06-13T18:16:05.356Z,24.61
2018-06-13T18:18:35.271Z,24.76
2018-06-13T18:21:05.595Z,24.86
2018-06-13T18:23:35.589Z,25.00
2018-06-13T18:26:05.673Z,25.10
2018-06-13T18:28:35.559Z,24.76
2018-06-13T18:31:05.621Z,24.79
2018-06-13T18:33:35.473Z,24.75
2018-06-13T18:36:06.106Z,24.53
2018-06-13T18:38:36.080Z,24.45
2018-06-13T18:41:06.232Z,24.42
2018-06-13T18:43:36.145Z,24.27
2018-06-13T18:46:06.583Z,24.18
2018-06-13T18:48:37.403Z,24.11
2018-06-13T18:51:07.718Z,24.07
2018-06-13T18:53:38.091Z,23.96
2018-06-13T18:56:08.194Z,23.88
2018-06-13T18:58:38.184Z,24.13
2018-06-13T19:01:08.160Z,24.17
2018-06-13T19:03:38.294Z,24.07
2018-06-13T19:06:08.174Z,23.96
2018-06-13T19:08:38.128Z,23.72
2018-06-13T19:11:08.140Z,23.74
2018-06-13T19:13:38.597Z,23.77
2018-06-13T19:16:08.551Z,23.63
2018-06-13T19:18:38.325Z,23.63
2018-06-13T19:21:08.313Z,23.58
2018-06-13T19:23:38.084Z,23.55
2018-06-13T19:26:08.592Z,23.51
2018-06-13T19:28:39.144Z,23.53
2018-06-13T19:31:09.383Z,23.45
2018-06-13T19:33:39.756Z,23.43
2018-06-13T19:36:09.766Z,23.33
2018-06-13T19:38:40.253Z,23.17
2018-06-13T19:41:10.440Z,23.05
2018-06-13T19:43:42.300Z,23.42
2018-06-13T19:46:12.592Z,23.23
2018-06-13T19:48:52.182Z,23.06
2018-06-13T19:51:22.287Z,23.11
2018-06-13T19:56:04.263Z,22.87
2018-06-13T19:58:35.074Z,23.09
2018-06-13T20:01:05.141Z,23.07
2018-06-13T20:03:40.354Z,23.25
2018-06-13T20:06:10.740Z,22.85
2018-06-13T20:08:41.073Z,22.69
2018-06-13T20:11:11.680Z,22.65
2018-06-13T20:13:46.773Z,22.54
2018-06-13T20:16:31.745Z,22.64
2018-06-13T20:19:06.469Z,22.92
2018-06-13T20:21:36.624Z,23.21
2018-06-13T20:24:06.740Z,23.10
2018-06-13T20:26:41.765Z,22.93
2018-06-13T20:29:16.831Z,22.96
2018-06-13T20:31:48.080Z,22.92
2018-06-13T20:34:17.963Z,23.22
2018-06-13T20:36:48.588Z,22.89
2018-06-13T20:39:18.820Z,22.72
2018-06-13T20:41:48.753Z,22.62
2018-06-13T20:44:18.693Z,22.46
2018-06-13T20:46:48.732Z,22.56
2018-06-13T20:49:18.703Z,23.33
2018-06-13T20:51:48.943Z,23.11
2018-06-13T20:54:18.829Z,23.28
2018-06-13T20:56:49.247Z,22.78
2018-06-13T20:59:19.300Z,22.73
2018-06-13T21:01:49.248Z,23.23
2018-06-13T21:04:19.281Z,23.21
2018-06-13T21:06:49.272Z,22.79
2018-06-13T21:09:19.356Z,23.20
2018-06-13T21:11:49.399Z,22.75
2018-06-13T21:14:19.653Z,22.57
2018-06-13T21:16:49.919Z,22.69
2018-06-13T21:19:19.879Z,23.16
2018-06-13T21:21:50.163Z,23.31
2018-06-13T21:24:20.135Z,23.18
2018-06-13T21:26:50.444Z,23.13
2018-06-13T21:29:21.210Z,23.13
2018-06-13T21:31:51.700Z,23.09
2018-06-13T21:34:21.952Z,23.08
2018-06-13T21:36:52.265Z,23.15
2018-06-13T21:39:22.682Z,23.20
2018-06-13T21:41:53.216Z,23.09
2018-06-13T21:44:23.553Z,22.84
2018-06-13T21:46:53.759Z,22.56
2018-06-13T21:49:23.947Z,22.44
2018-06-13T21:51:54.214Z,22.42
2018-06-13T21:54:24.617Z,22.43
2018-06-13T21:56:54.839Z,22.61
2018-06-13T21:59:25.292Z,22.66
2018-06-13T22:01:56.748Z,22.47
2018-06-13T22:04:26.941Z,22.38
2018-06-13T22:06:57.237Z,22.46
2018-06-13T22:09:27.461Z,22.46
2018-06-13T22:11:57.841Z,22.50
2018-06-13T22:14:27.731Z,22.42
2018-06-13T22:16:58.083Z,22.38
2018-06-13T22:19:28.016Z,22.29
2018-06-13T22:21:58.581Z,22.20
2018-06-13T22:24:28.815Z,22.16
2018-06-13T22:26:58.980Z,22.05
2018-06-13T22:29:29.065Z,22.21
2018-06-13T22:31:59.788Z,22.12
2018-06-13T22:34:30.044Z,22.04
2018-06-13T22:37:00.093Z,21.98
2018-06-13T22:39:30.202Z,21.86
2018-06-13T22:42:00.414Z,21.86
2018-06-13T22:44:30.592Z,21.77
2018-06-13T22:47:01.617Z,21.66
2018-06-13T22:49:31.839Z,21.70
2018-06-13T22:52:02.358Z,21.61
2018-06-13T22:54:32.605Z,21.52
2018-06-13T22:57:02.925Z,21.50
2018-06-13T22:59:33.005Z,21.47
2018-06-13T23:02:03.116Z,21.39
2018-06-13T23:04:32.961Z,21.42
2018-06-13T23:07:03.061Z,21.42
2018-06-13T23:09:33.032Z,21.32
2018-06-13T23:12:03.073Z,21.40
2018-06-13T23:14:33.902Z,21.30
2018-06-13T23:17:04.037Z,21.35
2018-06-13T23:19:34.399Z,21.31
2018-06-13T23:22:04.600Z,21.26
2018-06-13T23:24:34.681Z,21.20
2018-06-13T23:27:05.116Z,21.25
2018-06-13T23:29:35.012Z,21.20
2018-06-13T23:32:04.983Z,21.19
2018-06-13T23:34:34.976Z,21.23
2018-06-13T23:37:05.071Z,21.20
2018-06-13T23:39:35.200Z,21.25
2018-06-13T23:42:05.188Z,21.34
2018-06-13T23:44:35.591Z,21.24
2018-06-13T23:47:05.805Z,21.20
2018-06-13T23:49:36.421Z,21.12
2018-06-13T23:52:06.627Z,21.14
2018-06-13T23:54:36.910Z,21.25
2018-06-13T23:57:07.128Z,21.18
2018-06-13T23:59:37.216Z,21.15
